createdAt,value
2023-05-05T00:00:01.747Z,60.335
2023-05-05T00:01:02.259Z,59.988
2023-05-05T00:02:02.630Z,59.721
2023-05-05T00:03:01.999Z,59.499
2023-05-05T00:04:02.773Z,60.417
2023-05-05T00:05:02.012Z,60.032
2023-05-05T00:06:02.201Z,60.833
2023-05-05T00:07:02.309Z,60.953
2023-05-05T00:08:02.554Z,61.067
2023-05-05T00:09:01.660Z,60.573
2023-05-05T00:10:01.830Z,60.905
2023-05-05T00:11:01.984Z,61.306
2023-05-05T00:12:02.201Z,60.249
2023-05-05T00:13:02.425Z,61.453
2023-05-05T00:14:02.604Z,60.762
2023-05-05T00:15:01.737Z,60.957
2023-05-05T00:16:01.918Z,61.168
2023-05-05T00:17:02.175Z,61.540
2023-05-05T00:18:02.720Z,62.555
2023-05-05T00:19:01.919Z,62.503
2023-05-05T00:20:02.133Z,61.924
2023-05-05T00:21:02.296Z,61.908
2023-05-05T00:22:02.458Z,61.847
2023-05-05T00:23:01.639Z,62.378
2023-05-05T00:24:01.786Z,61.613
2023-05-05T00:25:01.996Z,62.805
2023-05-05T00:26:02.115Z,62.057
2023-05-05T00:27:02.297Z,61.636
2023-05-05T00:28:02.435Z,62.687
2023-05-05T00:29:01.682Z,62.503
2023-05-05T00:30:01.847Z,62.608
2023-05-05T00:31:02.139Z,61.836
2023-05-05T00:32:02.529Z,62.946
2023-05-05T00:33:01.830Z,62.973
2023-05-05T00:34:02.172Z,63.156
2023-05-05T00:35:02.282Z,62.706
2023-05-05T00:36:02.512Z,62.603
2023-05-05T00:37:01.704Z,63.064
2023-05-05T00:38:01.949Z,62.421
2023-05-05T00:39:02.132Z,62.822
2023-05-05T00:40:02.337Z,62.769
2023-05-05T00:41:01.760Z,63.177
2023-05-05T00:42:01.974Z,63.306
2023-05-05T00:43:02.294Z,63.053
2023-05-05T00:44:02.455Z,63.312
2023-05-05T00:45:02.603Z,63.337
2023-05-05T00:46:01.749Z,62.608
2023-05-05T00:47:02.194Z,62.732
2023-05-05T00:48:02.694Z,63.066
2023-05-05T00:49:02.068Z,62.631
2023-05-05T00:50:02.521Z,62.832
2023-05-05T00:51:01.722Z,63.467
2023-05-05T00:52:01.912Z,63.196
2023-05-05T00:53:02.052Z,63.198
2023-05-05T00:54:02.241Z,63.762
2023-05-05T00:55:02.394Z,63.173
2023-05-05T00:56:01.631Z,63.007
2023-05-05T00:57:01.986Z,62.980
2023-05-05T00:58:02.113Z,63.093
2023-05-05T00:59:02.323Z,63.499
2023-05-05T01:00:02.623Z,63.062
2023-05-05T01:01:01.850Z,63.200
2023-05-05T01:02:02.364Z,63.539
2023-05-05T01:03:01.732Z,63.682
2023-05-05T01:04:02.547Z,62.696
2023-05-05T01:05:01.970Z,63.125
2023-05-05T01:06:02.176Z,63.434
2023-05-05T01:07:02.444Z,63.236
2023-05-05T01:08:02.582Z,62.856
2023-05-05T01:09:01.729Z,63.053
2023-05-05T01:10:18.671Z,62.830
2023-05-05T01:12:02.499Z,62.906
2023-05-05T01:13:01.811Z,63.192
2023-05-05T01:14:02.066Z,63.333
2023-05-05T01:15:02.187Z,63.381
2023-05-05T01:16:02.345Z,62.704
2023-05-05T01:17:01.695Z,63.171
2023-05-05T01:18:02.248Z,62.708
2023-05-05T01:19:02.407Z,63.060
2023-05-05T01:20:02.599Z,63.051
2023-05-05T01:21:01.784Z,63.451
2023-05-05T01:22:01.983Z,63.083
2023-05-05T01:23:02.150Z,63.650
2023-05-05T01:24:02.339Z,63.400
2023-05-05T01:25:02.508Z,63.671
2023-05-05T01:26:02.629Z,62.389
2023-05-05T01:27:01.799Z,63.627
2023-05-05T01:28:02.011Z,65.271
2023-05-05T01:29:02.303Z,65.790
2023-05-05T01:30:02.551Z,64.155
2023-05-05T01:31:01.703Z,64.041
2023-05-05T01:32:02.129Z,65.662
2023-05-05T01:33:02.432Z,64.859
2023-05-05T01:34:02.531Z,64.480
2023-05-05T01:35:01.615Z,64.811
2023-05-05T01:36:01.885Z,66.883
2023-05-05T01:37:02.036Z,66.961
2023-05-05T01:38:02.304Z,66.145
2023-05-05T01:39:01.633Z,67.074
2023-05-05T01:40:01.816Z,66.436
2023-05-05T01:41:02.070Z,65.647
2023-05-05T01:42:02.259Z,64.930
2023-05-05T01:43:02.520Z,65.342
2023-05-05T01:44:01.723Z,65.893
2023-05-05T01:45:01.883Z,65.407
2023-05-05T01:46:02.224Z,65.231
2023-05-05T01:47:01.715Z,65.017
2023-05-05T01:48:01.893Z,64.474
2023-05-05T01:49:02.197Z,64.245
2023-05-05T01:50:02.452Z,63.989
2023-05-05T01:51:01.693Z,64.005
2023-05-05T01:52:01.844Z,63.535
2023-05-05T01:53:02.116Z,63.627
2023-05-05T01:54:02.286Z,63.749
2023-05-05T01:55:02.431Z,63.823
2023-05-05T01:56:01.677Z,63.228
2023-05-05T01:57:01.882Z,63.284
2023-05-05T01:58:02.136Z,62.505
2023-05-05T01:59:02.259Z,62.627
2023-05-05T02:00:02.631Z,62.561
2023-05-05T02:01:01.907Z,61.889
2023-05-05T02:02:02.358Z,62.084
2023-05-05T02:03:01.800Z,61.943
2023-05-05T02:04:02.094Z,62.065
2023-05-05T02:05:02.225Z,61.929
2023-05-05T02:06:02.447Z,61.859
2023-05-05T02:07:01.622Z,61.660
2023-05-05T02:08:01.747Z,61.384
2023-05-05T02:09:01.920Z,61.805
2023-05-05T02:10:02.040Z,61.477
2023-05-05T02:11:02.239Z,61.845
2023-05-05T02:12:02.379Z,61.514
2023-05-05T02:13:02.671Z,61.094
2023-05-05T02:14:01.637Z,61.218
2023-05-05T02:15:01.874Z,61.306
2023-05-05T02:16:02.262Z,61.117
2023-05-05T02:17:01.775Z,61.470
2023-05-05T02:18:02.082Z,61.273
2023-05-05T02:19:02.240Z,61.380
2023-05-05T02:20:02.352Z,61.294
2023-05-05T02:21:02.456Z,61.636
2023-05-05T02:22:01.683Z,61.844
2023-05-05T02:23:01.781Z,62.061
2023-05-05T02:24:02.000Z,61.905
2023-05-05T02:25:02.327Z,61.306
2023-05-05T02:26:02.493Z,62.181
2023-05-05T02:27:01.695Z,62.128
2023-05-05T02:28:01.787Z,62.421
2023-05-05T02:29:01.958Z,62.212
2023-05-05T02:30:02.070Z,62.269
2023-05-05T02:31:02.464Z,62.023
2023-05-05T02:32:01.760Z,61.750
2023-05-05T02:33:02.234Z,61.901
2023-05-05T02:34:02.407Z,61.859
2023-05-05T02:35:02.589Z,61.706
2023-05-05T02:36:01.750Z,61.710
2023-05-05T02:37:01.863Z,61.279
2023-05-05T02:38:02.099Z,61.697
2023-05-05T02:39:02.227Z,61.641
2023-05-05T02:40:02.476Z,61.485
2023-05-05T02:41:02.628Z,61.340
2023-05-05T02:42:01.773Z,61.401
2023-05-05T02:43:02.081Z,61.405
2023-05-05T02:44:02.491Z,61.584
2023-05-05T02:45:01.717Z,61.620
2023-05-05T02:46:01.892Z,61.418
2023-05-05T02:47:02.230Z,61.901
2023-05-05T02:48:02.496Z,61.121
2023-05-05T02:49:02.457Z,61.643
2023-05-05T02:54:02.379Z,61.752
2023-05-05T02:55:02.583Z,62.238
2023-05-05T02:56:01.760Z,62.555
2023-05-05T02:57:01.872Z,62.784
2023-05-05T02:58:02.079Z,62.719
2023-05-05T02:59:02.397Z,62.624
2023-05-05T03:00:01.602Z,62.881
2023-05-05T03:01:01.795Z,62.719
2023-05-05T03:02:02.270Z,63.282
2023-05-05T03:03:02.737Z,62.717
2023-05-05T03:04:02.254Z,63.083
2023-05-05T03:05:02.625Z,62.833
2023-05-05T03:06:01.881Z,63.099
2023-05-05T03:07:02.047Z,63.005
2023-05-05T03:08:02.273Z,63.625
2023-05-05T03:09:02.484Z,63.478
2023-05-05T03:10:01.769Z,63.446
2023-05-05T03:11:02.154Z,63.625
2023-05-05T03:12:02.299Z,63.530
2023-05-05T03:13:02.647Z,63.711
2023-05-05T03:14:01.766Z,63.835
2023-05-05T03:15:01.946Z,63.646
2023-05-05T03:16:02.194Z,63.680
2023-05-05T03:17:02.678Z,63.453
2023-05-05T03:18:01.972Z,63.612
2023-05-05T03:19:02.196Z,63.358
2023-05-05T03:20:05.131Z,63.547
2023-05-05T03:21:02.298Z,63.913
2023-05-05T03:22:02.472Z,63.409
2023-05-05T03:23:02.575Z,63.734
2023-05-05T03:24:01.849Z,62.938
2023-05-05T03:25:01.974Z,63.182
2023-05-05T03:26:02.280Z,63.379
2023-05-05T03:27:01.788Z,63.814
2023-05-05T03:28:01.927Z,63.579
2023-05-05T03:29:02.075Z,63.404
2023-05-05T03:30:02.303Z,63.791
2023-05-05T03:31:02.537Z,63.631
2023-05-05T03:32:01.905Z,63.762
2023-05-05T03:33:02.371Z,63.896
2023-05-05T03:34:02.613Z,64.157
2023-05-05T03:35:01.786Z,64.020
2023-05-05T03:36:01.992Z,63.852
2023-05-05T03:37:02.101Z,63.720
2023-05-05T03:38:02.201Z,63.545
2023-05-05T03:39:02.414Z,64.064
2023-05-05T03:40:01.748Z,63.970
2023-05-05T03:41:03.604Z,64.037
2023-05-05T03:43:01.861Z,64.605
2023-05-05T03:44:02.057Z,64.457
2023-05-05T03:45:02.228Z,63.642
2023-05-05T03:46:02.447Z,63.923
2023-05-05T03:47:01.909Z,64.220
2023-05-05T03:48:02.212Z,64.699
2023-05-05T03:49:02.433Z,64.254
2023-05-05T03:50:02.029Z,64.418
2023-05-05T03:51:02.270Z,64.653
2023-05-05T03:52:02.506Z,64.260
2023-05-05T03:53:01.687Z,64.422
2023-05-05T03:54:01.871Z,64.594
2023-05-05T03:55:02.054Z,64.747
2023-05-05T03:56:02.267Z,64.239
2023-05-05T03:57:02.452Z,64.619
2023-05-05T03:58:02.639Z,64.544
2023-05-05T03:59:01.762Z,64.293
2023-05-05T04:00:01.991Z,64.752
2023-05-05T04:01:02.410Z,64.586
2023-05-05T04:02:01.768Z,64.144
2023-05-05T04:03:01.851Z,63.980
2023-05-05T04:04:02.380Z,64.132
2023-05-05T04:05:01.716Z,64.134
2023-05-05T04:06:01.852Z,63.614
2023-05-05T04:07:02.021Z,63.999
2023-05-05T04:08:02.218Z,63.665
2023-05-05T04:09:02.461Z,63.875
2023-05-05T04:10:01.687Z,63.835
2023-05-05T04:11:01.897Z,63.551
2023-05-05T04:12:02.057Z,63.480
2023-05-05T04:13:02.436Z,63.690
2023-05-05T04:14:01.676Z,63.543
2023-05-05T04:15:01.940Z,63.419
2023-05-05T04:16:02.261Z,63.594
2023-05-05T04:17:01.595Z,63.514
2023-05-05T04:19:02.361Z,62.620
2023-05-05T04:20:02.566Z,62.484
2023-05-05T04:21:01.715Z,62.112
2023-05-05T04:22:01.902Z,61.956
2023-05-05T04:23:02.087Z,61.750
2023-05-05T04:24:02.283Z,61.544
2023-05-05T04:25:02.407Z,61.231
2023-05-05T04:26:01.774Z,61.132
2023-05-05T04:27:01.895Z,61.039
2023-05-05T04:28:02.051Z,60.735
2023-05-05T04:29:02.090Z,60.531
2023-05-05T04:30:02.311Z,60.337
2023-05-05T04:31:02.685Z,60.039
2023-05-05T04:32:02.124Z,59.894
2023-05-05T04:33:02.532Z,59.404
2023-05-05T04:34:01.768Z,59.171
2023-05-05T04:35:01.976Z,58.620
2023-05-05T04:36:02.125Z,57.962
2023-05-05T04:37:02.230Z,57.348
2023-05-05T04:38:02.410Z,57.054
2023-05-05T04:39:01.702Z,56.873
2023-05-05T04:40:01.907Z,55.946
2023-05-05T04:41:02.149Z,55.767
2023-05-05T04:42:02.280Z,55.496
2023-05-05T04:43:02.448Z,55.307
2023-05-05T04:44:02.608Z,55.122
2023-05-05T04:45:01.719Z,54.748
2023-05-05T04:46:01.878Z,54.849
2023-05-05T04:47:02.191Z,54.723
2023-05-05T04:48:02.520Z,54.468
2023-05-05T04:49:01.666Z,54.679
2023-05-05T04:50:01.895Z,54.323
2023-05-05T04:51:02.072Z,54.292
2023-05-05T04:52:02.292Z,54.164
2023-05-05T04:53:02.390Z,54.788
2023-05-05T04:54:02.592Z,55.303
2023-05-05T04:55:01.717Z,55.835
2023-05-05T04:56:01.914Z,56.097
2023-05-05T04:57:02.172Z,56.335
2023-05-05T04:58:02.424Z,56.430
2023-05-05T04:59:01.614Z,56.470
2023-05-05T05:00:01.820Z,56.865
2023-05-05T05:01:02.075Z,56.911
2023-05-05T05:02:02.666Z,56.896
2023-05-05T05:03:02.242Z,56.701
2023-05-05T05:04:01.993Z,56.558
2023-05-05T05:05:02.179Z,56.821
2023-05-05T05:06:02.416Z,56.116
2023-05-05T05:07:03.266Z,55.364
2023-05-05T05:08:02.407Z,54.840
2023-05-05T05:09:01.556Z,54.546
2023-05-05T05:10:01.806Z,55.028
2023-05-05T05:11:01.996Z,55.162
2023-05-05T05:12:02.344Z,55.023
2023-05-05T05:13:02.699Z,54.966
2023-05-05T05:14:02.262Z,54.182
2023-05-05T05:15:02.469Z,53.743
2023-05-05T05:16:02.680Z,53.024
2023-05-05T05:17:01.873Z,52.488
2023-05-05T05:18:02.152Z,54.496
2023-05-05T05:19:03.436Z,55.599
2023-05-05T05:20:01.751Z,55.719
2023-05-05T05:21:01.900Z,56.036
2023-05-05T05:22:02.196Z,55.717
2023-05-05T05:23:02.374Z,54.653
2023-05-05T05:24:02.632Z,54.788
2023-05-05T05:25:01.917Z,54.296
2023-05-05T05:26:02.018Z,54.840
2023-05-05T05:27:02.353Z,55.021
2023-05-05T05:28:10.452Z,56.066
2023-05-05T05:29:02.426Z,55.591
2023-05-05T05:30:02.548Z,55.400
2023-05-05T05:31:01.645Z,54.475
2023-05-05T05:32:02.070Z,52.894
2023-05-05T05:33:02.644Z,52.473
2023-05-05T05:34:01.879Z,51.656
2023-05-05T05:35:02.192Z,52.085
2023-05-05T05:36:02.383Z,52.314
2023-05-05T05:37:02.584Z,52.091
2023-05-05T05:38:01.777Z,51.530
2023-05-05T05:39:01.886Z,51.292
2023-05-05T05:40:02.676Z,51.570
2023-05-05T05:41:01.882Z,51.219
2023-05-05T05:42:02.070Z,50.476
2023-05-05T05:43:02.211Z,50.380
2023-05-05T05:44:02.376Z,50.041
2023-05-05T05:45:02.577Z,49.644
2023-05-05T05:46:01.858Z,49.066
2023-05-05T05:47:02.231Z,48.669
2023-05-05T05:48:02.395Z,49.024
2023-05-05T05:49:02.589Z,49.062
2023-05-05T05:50:01.739Z,49.671
2023-05-05T05:51:02.064Z,50.052
2023-05-05T05:52:02.239Z,49.247
2023-05-05T05:53:02.470Z,48.034
2023-05-05T05:54:02.666Z,48.067
2023-05-05T05:55:02.249Z,47.813
2023-05-05T05:56:02.554Z,46.810
2023-05-05T05:57:01.679Z,46.333
2023-05-05T05:58:01.902Z,46.554
2023-05-05T05:59:02.100Z,45.934
2023-05-05T06:00:03.740Z,45.768
2023-05-05T06:01:01.902Z,46.346
2023-05-05T06:02:02.143Z,45.307
2023-05-05T06:03:02.787Z,44.855
2023-05-05T06:04:02.023Z,44.406
2023-05-05T06:05:02.288Z,44.895
2023-05-05T06:06:02.676Z,44.458
2023-05-05T06:07:01.817Z,44.278
2023-05-05T06:08:01.979Z,44.898
2023-05-05T06:09:02.161Z,44.168
2023-05-05T06:10:18.992Z,44.605
2023-05-05T06:12:03.047Z,44.006
2023-05-05T06:13:03.333Z,43.701
2023-05-05T06:14:03.693Z,44.521
2023-05-05T06:15:02.949Z,44.320
2023-05-05T06:16:03.244Z,44.498
2023-05-05T06:17:03.515Z,45.844
2023-05-05T06:18:02.982Z,45.648
2023-05-05T06:19:03.367Z,46.329
2023-05-05T06:20:03.632Z,45.787
2023-05-05T06:21:02.881Z,45.690
2023-05-05T06:22:03.093Z,45.141
2023-05-05T06:23:03.267Z,44.721
2023-05-05T06:24:03.519Z,44.078
2023-05-05T06:25:02.674Z,44.206
2023-05-05T06:26:02.907Z,43.605
2023-05-05T06:27:03.081Z,43.741
2023-05-05T06:28:03.250Z,43.218
2023-05-05T06:29:03.436Z,43.201
2023-05-05T06:30:03.664Z,42.749
2023-05-05T06:31:03.254Z,42.575
2023-05-05T06:32:03.703Z,42.127
2023-05-05T06:33:02.941Z,40.977
2023-05-05T06:34:03.192Z,41.887
2023-05-05T06:35:03.389Z,41.663
2023-05-05T06:36:03.642Z,40.763
2023-05-05T06:37:02.908Z,41.044
2023-05-05T06:38:03.107Z,41.526
2023-05-05T06:39:03.321Z,41.314
2023-05-05T06:40:03.471Z,42.260
2023-05-05T06:41:02.667Z,41.280
2023-05-05T06:42:02.888Z,42.016
2023-05-05T06:43:03.102Z,40.870
2023-05-05T06:44:03.259Z,40.818
2023-05-05T06:45:03.469Z,41.498
2023-05-05T06:46:02.688Z,41.496
2023-05-05T06:47:02.953Z,41.602
2023-05-05T06:48:03.323Z,41.271
2023-05-05T06:49:03.543Z,41.248
2023-05-05T06:50:02.735Z,40.612
2023-05-05T06:51:03.118Z,41.118
2023-05-05T06:52:03.649Z,41.238
2023-05-05T06:53:03.077Z,41.499
2023-05-05T06:54:03.282Z,41.761
2023-05-05T06:55:03.604Z,42.215
2023-05-05T06:56:02.948Z,41.457
2023-05-05T06:57:03.136Z,41.038
2023-05-05T06:58:03.352Z,40.578
2023-05-05T06:59:03.508Z,40.517
2023-05-05T07:00:02.617Z,39.939
2023-05-05T07:01:02.953Z,39.825
2023-05-05T07:02:03.580Z,40.162
2023-05-05T07:03:02.843Z,39.977
2023-05-05T07:04:03.569Z,39.439
2023-05-05T07:05:02.954Z,40.113
2023-05-05T07:06:03.178Z,39.386
2023-05-05T07:07:03.407Z,39.998
2023-05-05T07:08:03.562Z,40.141
2023-05-05T07:09:03.236Z,39.146
2023-05-05T07:10:02.690Z,40.056
2023-05-05T07:11:02.788Z,40.389
2023-05-05T07:13:02.996Z,39.602
2023-05-05T07:14:03.404Z,39.287
2023-05-05T07:15:19.375Z,39.436
2023-05-05T07:17:03.496Z,40.504
2023-05-05T07:18:02.765Z,39.874
2023-05-05T07:19:03.000Z,40.130
2023-05-05T07:20:03.122Z,40.086
2023-05-05T07:21:03.383Z,39.523
2023-05-05T07:22:03.865Z,39.575
2023-05-05T07:23:03.075Z,39.006
2023-05-05T07:24:03.352Z,38.684
2023-05-05T07:25:03.689Z,39.132
2023-05-05T07:26:03.146Z,39.058
2023-05-05T07:27:03.444Z,39.304
2023-05-05T07:28:02.644Z,39.565
2023-05-05T07:29:02.868Z,39.178
2023-05-05T07:30:04.730Z,39.422
2023-05-05T07:31:02.988Z,38.823
2023-05-05T07:32:03.224Z,38.684
2023-05-05T07:33:03.705Z,38.654
2023-05-05T07:34:02.883Z,39.195
2023-05-05T07:35:03.121Z,39.525
2023-05-05T07:36:03.314Z,38.903
2023-05-05T07:37:03.505Z,39.153
2023-05-05T07:38:02.932Z,38.446
2023-05-05T07:39:03.133Z,39.447
2023-05-05T07:40:03.404Z,39.319
2023-05-05T07:41:02.695Z,39.026
2023-05-05T07:42:03.071Z,39.281
2023-05-05T07:43:02.897Z,39.609
2023-05-05T07:44:03.682Z,38.923
2023-05-05T07:45:02.900Z,38.270
2023-05-05T07:46:03.341Z,38.272
2023-05-05T07:47:02.894Z,37.627
2023-05-05T07:48:03.310Z,37.715
2023-05-05T07:49:02.815Z,37.917
2023-05-05T07:50:03.207Z,37.704
2023-05-05T07:51:03.478Z,38.284
2023-05-05T07:52:03.160Z,37.246
2023-05-05T07:53:14.711Z,39.235
2023-05-05T07:55:03.430Z,37.500
2023-05-05T07:56:03.071Z,37.238
2023-05-05T07:57:02.925Z,37.235
2023-05-05T07:58:03.225Z,36.897
2023-05-05T07:59:03.469Z,37.238
2023-05-05T08:00:02.633Z,36.708
2023-05-05T08:01:02.942Z,36.632
2023-05-05T08:02:03.215Z,37.065
2023-05-05T08:03:03.918Z,36.378
2023-05-05T08:04:02.820Z,36.779
2023-05-05T08:05:03.293Z,36.288
2023-05-05T08:06:03.569Z,36.582
2023-05-05T08:07:02.928Z,40.075
2023-05-05T08:08:03.137Z,37.837
2023-05-05T08:09:03.438Z,37.324
2023-05-05T08:10:02.591Z,37.462
2023-05-05T08:11:02.774Z,38.881
2023-05-05T08:12:03.031Z,36.720
2023-05-05T08:13:03.394Z,36.563
2023-05-05T08:14:02.789Z,38.663
2023-05-05T08:15:02.988Z,40.033
2023-05-05T08:16:03.632Z,40.738
2023-05-05T08:17:03.221Z,40.052
2023-05-05T08:18:03.201Z,39.342
2023-05-05T08:19:03.443Z,39.544
2023-05-05T08:20:03.050Z,40.786
2023-05-05T08:21:03.274Z,40.490
2023-05-05T08:22:03.470Z,41.084
2023-05-05T08:23:02.677Z,40.399
2023-05-05T08:24:02.940Z,40.950
2023-05-05T08:25:03.092Z,41.429
2023-05-05T08:26:03.274Z,41.019
2023-05-05T08:27:03.527Z,40.967
2023-05-05T08:28:02.722Z,41.555
2023-05-05T08:29:02.980Z,41.187
2023-05-05T08:30:03.494Z,41.517
2023-05-05T08:31:02.618Z,41.091
2023-05-05T08:32:02.992Z,40.830
2023-05-05T08:33:03.550Z,40.405
2023-05-05T08:34:02.793Z,41.068
2023-05-05T08:35:03.002Z,40.138
2023-05-05T08:36:03.304Z,39.941
2023-05-05T08:37:03.472Z,39.396
2023-05-05T08:39:02.914Z,38.764
2023-05-05T08:40:03.367Z,38.074
2023-05-05T08:41:02.984Z,35.966
2023-05-05T08:42:03.285Z,36.264
2023-05-05T08:44:06.223Z,38.303
2023-05-05T08:45:06.609Z,36.981
2023-05-05T08:46:06.138Z,37.000
2023-05-05T08:47:06.604Z,36.248
2023-05-05T08:48:05.831Z,35.644
2023-05-05T08:49:06.092Z,35.806
2023-05-05T08:50:06.439Z,36.014
2023-05-05T08:51:07.109Z,36.012
2023-05-05T08:53:09.497Z,37.324
2023-05-05T08:55:05.886Z,35.531
2023-05-05T08:56:06.166Z,35.457
2023-05-05T08:57:06.324Z,35.680
2023-05-05T08:58:06.499Z,35.733
2023-05-05T08:59:05.628Z,35.295
2023-05-05T09:00:05.832Z,34.940
2023-05-05T09:01:06.418Z,35.444
2023-05-05T09:02:06.097Z,35.773
2023-05-05T09:03:06.980Z,34.309
2023-05-05T09:04:06.483Z,36.266
2023-05-05T09:07:06.274Z,33.792
2023-05-05T09:08:06.524Z,37.450
2023-05-05T09:09:05.721Z,38.047
2023-05-05T09:10:06.012Z,38.036
2023-05-05T09:11:06.408Z,38.242
2023-05-05T09:12:06.815Z,38.242
2023-05-05T09:13:06.152Z,38.568
2023-05-05T09:14:06.443Z,38.619
2023-05-05T09:15:07.074Z,38.011
2023-05-05T09:16:05.763Z,38.192
2023-05-05T09:17:06.233Z,37.944
2023-05-05T09:18:06.869Z,36.584
2023-05-05T09:19:06.111Z,35.468
2023-05-05T09:20:06.430Z,35.522
2023-05-05T09:21:05.624Z,35.312
2023-05-05T09:22:05.961Z,35.310
2023-05-05T09:23:06.405Z,34.238
2023-05-05T09:24:10.344Z,35.371
2023-05-05T09:25:06.687Z,34.970
2023-05-05T09:26:06.094Z,35.760
2023-05-05T09:27:06.216Z,35.670
2023-05-05T09:28:06.478Z,33.450
2023-05-05T09:29:05.660Z,33.738
2023-05-05T09:30:05.956Z,32.308
2023-05-05T09:31:06.235Z,33.675
2023-05-05T09:32:06.546Z,33.950
2023-05-05T09:33:05.951Z,34.507
2023-05-05T09:34:06.179Z,33.240
2023-05-05T09:35:06.537Z,34.679
2023-05-05T09:36:05.819Z,33.298
2023-05-05T09:37:06.159Z,33.950
2023-05-05T09:38:06.528Z,33.837
2023-05-05T09:39:06.049Z,33.065
2023-05-05T09:40:06.415Z,33.244
2023-05-05T09:41:06.054Z,32.731
2023-05-05T09:42:06.319Z,31.856
2023-05-05T09:43:06.518Z,33.792
2023-05-05T09:44:05.728Z,32.695
2023-05-05T09:45:06.008Z,34.589
2023-05-05T09:46:06.423Z,34.318
2023-05-05T09:47:18.428Z,32.445
2023-05-05T09:49:06.383Z,31.816
2023-05-05T09:50:06.808Z,31.415
2023-05-05T09:51:06.227Z,30.669
2023-05-05T09:52:06.425Z,30.820
2023-05-05T09:53:07.124Z,32.083
2023-05-05T09:54:06.381Z,31.272
2023-05-05T09:55:06.610Z,31.116
2023-05-05T09:56:05.754Z,32.443
2023-05-05T09:57:05.979Z,31.243
2023-05-05T09:58:06.529Z,31.100
2023-05-05T09:59:05.997Z,30.564
2023-05-05T10:00:06.336Z,30.465
2023-05-05T10:01:06.016Z,31.999
2023-05-05T10:02:06.504Z,33.818
2023-05-05T10:03:05.970Z,32.907
2023-05-05T10:04:06.167Z,32.087
2023-05-05T10:05:06.741Z,31.375
2023-05-05T10:06:06.386Z,33.256
2023-05-05T10:07:06.609Z,31.963
2023-05-05T10:08:05.859Z,32.111
2023-05-05T10:09:06.120Z,31.945
2023-05-05T10:10:06.654Z,34.505
2023-05-05T10:11:05.918Z,34.736
2023-05-05T10:12:06.136Z,33.954
2023-05-05T10:13:06.562Z,33.288
2023-05-05T10:14:05.905Z,32.941
2023-05-05T10:15:06.144Z,32.434
2023-05-05T10:16:06.538Z,32.348
2023-05-05T10:17:05.874Z,31.894
2023-05-05T10:18:11.260Z,32.573
2023-05-05T10:20:06.022Z,31.720
2023-05-05T10:21:06.420Z,32.622
2023-05-05T10:22:05.728Z,31.982
2023-05-05T10:23:06.037Z,31.470
2023-05-05T10:24:06.307Z,33.746
2023-05-05T10:25:06.588Z,34.986
2023-05-05T10:26:05.885Z,35.335
2023-05-05T10:27:06.087Z,33.727
2023-05-05T10:28:06.241Z,35.173
2023-05-05T10:29:06.596Z,35.007
2023-05-05T10:30:05.843Z,34.023
2023-05-05T10:32:16.488Z,33.944
2023-05-05T10:34:12.324Z,32.449
2023-05-05T10:35:11.692Z,31.194
2023-05-05T10:36:11.951Z,31.030
2023-05-05T10:37:12.297Z,30.257
2023-05-05T10:38:12.657Z,31.060
2023-05-05T10:39:12.098Z,33.048
2023-05-05T10:40:12.467Z,32.399
2023-05-05T10:41:11.707Z,34.618
2023-05-05T10:42:11.948Z,33.656
2023-05-05T10:43:12.265Z,32.977
2023-05-05T10:44:12.587Z,32.087
2023-05-05T10:45:11.793Z,31.091
2023-05-05T10:46:12.543Z,31.221
2023-05-05T10:47:12.082Z,30.496
2023-05-05T10:48:12.585Z,32.914
2023-05-05T10:49:14.573Z,33.881
2023-05-05T10:50:11.790Z,33.536
2023-05-05T10:51:12.005Z,33.918
2023-05-05T10:53:11.685Z,32.977
2023-05-05T10:54:12.040Z,32.420
2023-05-05T10:55:12.525Z,36.994
2023-05-05T10:56:11.694Z,34.726
2023-05-05T10:57:12.101Z,34.337
2023-05-05T10:58:12.357Z,36.912
2023-05-05T10:59:17.466Z,34.749
2023-05-05T11:01:12.163Z,35.854
2023-05-05T11:02:12.551Z,37.553
2023-05-05T11:03:12.492Z,36.060
2023-05-05T11:04:12.296Z,35.985
2023-05-05T11:05:12.571Z,35.966
2023-05-05T11:08:12.059Z,35.339
2023-05-05T11:09:12.184Z,35.392
2023-05-05T11:10:12.745Z,34.833
2023-05-05T11:11:11.972Z,34.963
2023-05-05T11:12:12.128Z,36.453
2023-05-05T11:13:12.608Z,35.464
2023-05-05T11:14:11.770Z,34.639
2023-05-05T11:15:12.134Z,33.986
2023-05-05T11:16:12.714Z,34.408
2023-05-05T11:17:12.156Z,34.364
2023-05-05T11:18:12.524Z,34.494
2023-05-05T11:19:11.728Z,36.409
2023-05-05T11:20:12.034Z,35.440
2023-05-05T11:21:12.305Z,34.028
2023-05-05T11:22:12.504Z,33.717
2023-05-05T11:23:12.221Z,35.279
2023-05-05T11:24:12.244Z,36.308
2023-05-05T11:25:12.432Z,35.049
2023-05-05T11:26:12.563Z,33.635
2023-05-05T11:27:11.735Z,33.998
2023-05-05T11:28:12.010Z,33.412
2023-05-05T11:29:12.391Z,33.260
2023-05-05T11:30:12.331Z,33.893
2023-05-05T11:31:11.687Z,32.754
2023-05-05T11:32:12.260Z,35.037
2023-05-05T11:33:11.696Z,36.628
2023-05-05T11:34:11.875Z,36.664
2023-05-05T11:35:12.093Z,37.187
2023-05-05T11:36:12.254Z,35.363
2023-05-05T11:37:12.416Z,34.017
2023-05-05T11:38:12.555Z,34.051
2023-05-05T11:39:11.905Z,36.023
2023-05-05T11:40:12.382Z,36.075
2023-05-05T11:41:12.574Z,35.936
2023-05-05T11:42:12.468Z,36.027
2023-05-05T11:44:12.014Z,37.143
2023-05-05T11:45:12.159Z,36.676
2023-05-05T11:46:12.465Z,37.795
2023-05-05T11:47:11.889Z,35.705
2023-05-05T11:48:12.339Z,35.829
2023-05-05T11:49:12.542Z,35.297
2023-05-05T11:50:11.932Z,36.863
2023-05-05T11:51:12.144Z,37.412
2023-05-05T11:52:12.372Z,37.988
2023-05-05T11:53:11.572Z,37.406
2023-05-05T11:54:11.725Z,38.512
2023-05-05T11:55:11.968Z,40.443
2023-05-05T11:56:12.172Z,40.202
2023-05-05T11:57:12.436Z,41.118
2023-05-05T11:58:11.736Z,42.631
2023-05-05T11:59:12.053Z,42.499
2023-05-05T12:00:12.692Z,41.448
2023-05-05T12:01:11.977Z,42.363
2023-05-05T12:02:12.180Z,42.081
2023-05-05T12:03:12.921Z,41.671
2023-05-05T12:04:12.082Z,42.224
2023-05-05T12:09:12.663Z,40.574
2023-05-05T12:10:12.458Z,39.573
2023-05-05T12:11:11.681Z,39.260
2023-05-05T12:12:12.007Z,38.614
2023-05-05T12:13:14.883Z,38.860
2023-05-05T12:15:11.851Z,39.722
2023-05-05T12:16:12.053Z,40.155
2023-05-05T12:17:12.518Z,40.841
2023-05-05T12:18:11.858Z,39.817
2023-05-05T12:19:12.128Z,39.544
2023-05-05T12:20:13.141Z,40.614
2023-05-05T12:22:11.617Z,42.310
2023-05-05T12:23:11.829Z,42.859
2023-05-05T12:24:11.995Z,41.711
2023-05-05T12:25:13.892Z,40.818
2023-05-05T12:28:12.607Z,41.280
2023-05-05T12:29:11.736Z,42.005
2023-05-05T12:30:12.025Z,41.587
2023-05-05T12:31:13.989Z,41.559
2023-05-05T12:32:12.602Z,44.240
2023-05-05T12:33:11.941Z,45.455
2023-05-05T12:34:12.258Z,45.328
2023-05-05T12:35:12.507Z,45.787
2023-05-05T12:36:11.696Z,46.354
2023-05-05T12:37:12.306Z,46.436
2023-05-05T12:38:12.548Z,46.493
2023-05-05T12:39:11.762Z,47.071
2023-05-05T12:40:12.206Z,47.262
2023-05-05T12:41:12.416Z,47.399
2023-05-05T12:42:12.602Z,47.199
2023-05-05T12:43:11.764Z,47.323
2023-05-05T12:44:12.085Z,47.874
2023-05-05T12:45:12.348Z,48.110
2023-05-05T12:46:11.971Z,49.358
2023-05-05T12:47:12.480Z,49.709
2023-05-05T12:48:11.934Z,50.111
2023-05-05T12:49:12.174Z,49.903
2023-05-05T12:50:12.705Z,50.497
2023-05-05T12:51:11.936Z,50.155
2023-05-05T12:52:12.213Z,50.338
2023-05-05T12:53:12.364Z,50.170
2023-05-05T12:54:12.703Z,49.863
2023-05-05T12:56:12.001Z,50.111
2023-05-05T12:57:12.248Z,49.941
2023-05-05T12:58:12.468Z,49.648
2023-05-05T12:59:11.663Z,49.623
2023-05-05T13:00:12.074Z,50.722
2023-05-05T13:01:13.974Z,49.833
2023-05-05T13:02:12.641Z,50.470
2023-05-05T13:04:12.129Z,49.032